createdAt,value
2018-07-28T00:00:26.818Z,28.90
2018-07-28T00:02:56.505Z,28.90
2018-07-28T00:05:26.113Z,28.90
2018-07-28T00:07:55.839Z,28.80
2018-07-28T00:10:25.667Z,28.70
2018-07-28T00:12:55.399Z,28.70
2018-07-28T00:15:25.105Z,28.60
2018-07-28T00:17:54.818Z,28.50
2018-07-28T00:20:24.601Z,28.50
2018-07-28T00:22:54.213Z,28.40
2018-07-28T00:25:24.033Z,28.30
2018-07-28T00:27:53.646Z,28.20
2018-07-28T00:30:23.410Z,28.20
2018-07-28T00:32:53.112Z,28.10
2018-07-28T00:35:22.883Z,28.10
2018-07-28T00:37:52.638Z,28.00
2018-07-28T00:40:22.338Z,27.90
2018-07-28T00:42:52.110Z,27.90
2018-07-28T00:45:21.766Z,27.80
2018-07-28T00:47:51.544Z,27.80
2018-07-28T00:50:21.298Z,27.70
2018-07-28T00:52:50.935Z,27.70
2018-07-28T00:55:20.714Z,27.60
2018-07-28T00:57:50.415Z,27.60
2018-07-28T01:00:20.172Z,27.50
2018-07-28T01:02:49.853Z,27.50
2018-07-28T01:05:19.620Z,27.40
2018-07-28T01:07:49.282Z,27.40
2018-07-28T01:10:19.088Z,27.40
2018-07-28T01:12:48.812Z,27.30
2018-07-28T01:15:18.567Z,27.30
2018-07-28T01:17:48.193Z,27.20
2018-07-28T01:20:17.983Z,27.20
2018-07-28T01:22:47.615Z,27.20
2018-07-28T01:25:17.333Z,27.10
2018-07-28T01:27:47.009Z,27.10
2018-07-28T01:30:21.931Z,27.00
2018-07-28T01:32:51.581Z,27.00
2018-07-28T01:35:21.282Z,27.00
2018-07-28T01:37:50.959Z,26.90
2018-07-28T01:40:20.646Z,26.80
2018-07-28T01:42:50.355Z,26.80
2018-07-28T01:45:20.064Z,26.70
2018-07-28T01:47:49.676Z,26.70
2018-07-28T01:50:19.406Z,26.60
2018-07-28T01:52:48.977Z,26.60
2018-07-28T01:55:18.691Z,26.50
2018-07-28T01:57:48.303Z,26.50
2018-07-28T02:00:17.921Z,26.40
2018-07-28T02:02:47.585Z,26.40
2018-07-28T02:05:17.309Z,26.30
2018-07-28T02:07:46.986Z,26.30
2018-07-28T02:10:16.617Z,26.30
2018-07-28T02:12:46.359Z,26.20
2018-07-28T02:15:15.997Z,26.00
2018-07-28T02:17:45.562Z,25.80
2018-07-28T02:20:15.368Z,25.80
2018-07-28T02:22:45.047Z,25.80
2018-07-28T02:25:14.731Z,25.70
2018-07-28T02:27:44.378Z,25.60
2018-07-28T02:30:14.055Z,25.60
2018-07-28T02:32:43.803Z,25.60
2018-07-28T02:35:13.522Z,25.60
2018-07-28T02:37:43.153Z,25.70
2018-07-28T02:40:12.880Z,25.70
2018-07-28T02:42:42.531Z,25.70
2018-07-28T02:45:12.243Z,25.70
2018-07-28T02:47:41.930Z,25.70
2018-07-28T02:50:11.530Z,25.80
2018-07-28T02:52:41.185Z,25.80
2018-07-28T02:55:11.178Z,25.80
2018-07-28T02:57:40.978Z,25.70
2018-07-28T03:00:10.836Z,25.70
2018-07-28T03:02:40.440Z,25.60
2018-07-28T03:05:10.106Z,25.60
2018-07-28T03:07:39.743Z,25.60
2018-07-28T03:10:09.855Z,25.60
2018-07-28T03:12:39.569Z,25.50
2018-07-28T03:15:32.265Z,25.50
2018-07-28T03:18:03.178Z,25.40
2018-07-28T03:20:32.965Z,25.40
2018-07-28T03:23:03.436Z,25.30
2018-07-28T03:25:33.024Z,25.30
2018-07-28T03:28:02.781Z,25.20
2018-07-28T03:30:32.487Z,25.20
2018-07-28T03:33:02.361Z,25.10
2018-07-28T03:35:31.954Z,25.00
2018-07-28T03:38:01.483Z,25.00
2018-07-28T03:40:31.103Z,24.90
2018-07-28T03:43:00.714Z,24.90
2018-07-28T03:45:30.382Z,24.90
2018-07-28T03:48:00.035Z,24.80
2018-07-28T03:50:29.724Z,24.80
2018-07-28T03:52:59.448Z,24.70
2018-07-28T03:55:29.048Z,24.70
2018-07-28T03:57:58.768Z,24.60
2018-07-28T04:00:28.496Z,24.60
2018-07-28T04:02:58.133Z,24.60
2018-07-28T04:05:27.845Z,24.50
2018-07-28T04:07:57.540Z,24.50
2018-07-28T04:10:27.215Z,24.50
2018-07-28T04:12:56.951Z,24.50
2018-07-28T04:15:26.703Z,24.40
2018-07-28T04:17:56.855Z,24.40
2018-07-28T04:20:27.507Z,24.40
2018-07-28T04:22:57.054Z,24.40
2018-07-28T04:25:26.681Z,24.40
2018-07-28T04:27:56.357Z,24.40
2018-07-28T04:30:26.087Z,24.50
2018-07-28T04:32:55.805Z,24.50
2018-07-28T04:35:25.415Z,24.50
2018-07-28T04:37:54.975Z,24.50
2018-07-28T04:40:24.676Z,24.50
2018-07-28T04:42:54.340Z,24.60
2018-07-28T04:45:23.934Z,24.60
2018-07-28T04:47:53.524Z,24.60
2018-07-28T04:50:23.182Z,24.70
2018-07-28T04:52:53.177Z,24.70
2018-07-28T04:55:22.809Z,24.70
2018-07-28T04:57:52.476Z,24.80
2018-07-28T05:00:22.111Z,24.80
2018-07-28T05:02:51.732Z,24.90
2018-07-28T05:05:21.335Z,24.90
2018-07-28T05:07:51.026Z,24.90
2018-07-28T05:10:20.693Z,25.00
2018-07-28T05:12:50.425Z,25.00
2018-07-28T05:15:20.245Z,25.10
2018-07-28T05:17:50.001Z,25.10
2018-07-28T05:20:19.713Z,25.10
2018-07-28T05:22:49.383Z,25.00
2018-07-28T05:25:19.217Z,25.10
2018-07-28T05:27:48.990Z,25.00
2018-07-28T05:30:18.615Z,25.00
2018-07-28T05:32:48.287Z,25.00
2018-07-28T05:35:17.982Z,25.00
2018-07-28T05:37:47.683Z,25.00
2018-07-28T05:40:17.288Z,25.00
2018-07-28T05:42:46.939Z,24.90
2018-07-28T05:45:16.651Z,24.90
2018-07-28T05:47:46.391Z,24.90
2018-07-28T05:50:16.283Z,24.90
2018-07-28T05:52:45.783Z,24.80
2018-07-28T05:55:15.530Z,24.80
2018-07-28T05:57:45.209Z,24.80
2018-07-28T06:00:14.894Z,24.80
2018-07-28T06:02:44.550Z,24.70
2018-07-28T06:05:14.342Z,24.70
2018-07-28T06:07:44.039Z,24.60
2018-07-28T06:10:13.755Z,24.40
2018-07-28T06:12:43.354Z,24.30
2018-07-28T06:15:13.002Z,24.20
2018-07-28T06:17:42.653Z,24.00
2018-07-28T06:20:12.440Z,23.90
2018-07-28T06:22:42.106Z,23.80
2018-07-28T06:25:11.735Z,23.80
2018-07-28T06:27:41.341Z,23.70
2018-07-28T06:30:11.629Z,23.60
2018-07-28T06:32:41.467Z,23.50
2018-07-28T06:35:11.126Z,23.40
2018-07-28T06:37:40.849Z,23.40
2018-07-28T06:40:10.937Z,23.30
2018-07-28T06:42:40.620Z,23.20
2018-07-28T06:45:10.461Z,23.20
2018-07-28T06:47:40.073Z,23.20
2018-07-28T06:50:09.869Z,23.20
2018-07-28T06:52:39.492Z,23.20
2018-07-28T06:55:09.221Z,23.20
2018-07-28T06:57:38.921Z,23.20
2018-07-28T07:00:10.249Z,23.20
2018-07-28T07:02:39.903Z,23.20
2018-07-28T07:05:09.926Z,23.30
2018-07-28T07:07:39.600Z,23.30
2018-07-28T07:10:09.191Z,23.40
2018-07-28T07:12:38.886Z,23.50
2018-07-28T07:17:38.210Z,23.60
2018-07-28T07:20:08.409Z,23.80
2018-07-28T07:22:38.106Z,23.80
2018-07-28T07:25:08.107Z,23.90
2018-07-28T07:27:37.974Z,24.00
2018-07-28T07:30:07.909Z,24.10
2018-07-28T07:32:37.725Z,24.20
2018-07-28T07:35:07.360Z,24.30
2018-07-28T07:37:37.050Z,24.50
2018-07-28T07:40:07.273Z,24.60
2018-07-28T07:42:36.920Z,24.70
2018-07-28T07:45:07.034Z,24.90
2018-07-28T07:47:36.796Z,25.00
2018-07-28T07:50:06.644Z,25.10
2018-07-28T07:52:36.225Z,25.20
2018-07-28T07:55:05.960Z,25.20
2018-07-28T07:57:35.669Z,25.30
2018-07-28T08:00:05.288Z,25.30
2018-07-28T08:02:34.922Z,25.30
2018-07-28T08:05:05.023Z,25.30
2018-07-28T08:07:34.651Z,25.40
2018-07-28T08:10:05.101Z,25.40
2018-07-28T08:12:34.903Z,25.50
2018-07-28T08:15:05.006Z,25.50
2018-07-28T08:17:34.755Z,25.60
2018-07-28T08:20:04.965Z,25.70
2018-07-28T08:22:34.757Z,25.70
2018-07-28T08:25:04.950Z,25.70
2018-07-28T08:27:34.797Z,25.80
2018-07-28T08:30:05.422Z,25.80
2018-07-28T08:32:35.139Z,25.90
2018-07-28T08:35:05.974Z,25.90
2018-07-28T08:37:35.668Z,26.00
2018-07-28T08:40:06.100Z,26.00
2018-07-28T08:42:35.651Z,26.00
2018-07-28T08:45:06.423Z,26.00
2018-07-28T08:47:36.309Z,26.10
2018-07-28T08:50:06.175Z,26.10
2018-07-28T08:52:35.797Z,26.10
2018-07-28T08:55:05.755Z,26.10
2018-07-28T08:57:35.461Z,26.10
2018-07-28T09:00:05.376Z,26.20
2018-07-28T09:02:35.275Z,26.20
2018-07-28T09:05:05.418Z,26.10
2018-07-28T09:07:35.089Z,26.10
2018-07-28T09:10:04.924Z,26.10
2018-07-28T09:12:34.951Z,26.10
2018-07-28T09:15:05.679Z,26.00
2018-07-28T09:17:35.457Z,26.00
2018-07-28T09:20:05.225Z,26.00
2018-07-28T09:22:34.950Z,25.90
2018-07-28T09:25:04.699Z,25.80
2018-07-28T09:27:34.381Z,25.80
2018-07-28T09:30:04.087Z,25.70
2018-07-28T09:32:34.123Z,25.60
2018-07-28T09:35:03.729Z,25.60
2018-07-28T09:37:33.390Z,25.50
2018-07-28T09:40:03.037Z,25.50
2018-07-28T09:42:32.712Z,25.50
2018-07-28T09:45:02.347Z,25.40
2018-07-28T09:47:31.947Z,25.40
2018-07-28T09:50:01.593Z,25.50
2018-07-28T09:52:31.262Z,25.50
2018-07-28T09:55:00.924Z,25.50
2018-07-28T09:57:30.690Z,25.60
2018-07-28T10:00:00.408Z,25.60
2018-07-28T10:02:30.010Z,25.80
2018-07-28T10:04:59.569Z,25.90
2018-07-28T10:07:29.252Z,26.00
2018-07-28T10:09:58.898Z,26.00
2018-07-28T10:12:28.662Z,26.20
2018-07-28T10:14:58.405Z,26.30
2018-07-28T10:17:28.016Z,26.40
2018-07-28T10:19:57.593Z,26.50
2018-07-28T10:22:27.207Z,26.60
2018-07-28T10:24:56.707Z,26.80
2018-07-28T10:27:26.301Z,27.00
2018-07-28T10:29:55.955Z,27.20
2018-07-28T10:32:25.630Z,27.30
2018-07-28T10:34:55.283Z,27.50
2018-07-28T10:37:25.061Z,27.70
2018-07-28T10:39:54.756Z,27.90
2018-07-28T10:42:24.407Z,27.90
2018-07-28T10:44:54.004Z,28.00
2018-07-28T10:47:24.242Z,28.10
2018-07-28T10:49:53.914Z,28.30
2018-07-28T10:52:23.574Z,28.40
2018-07-28T10:54:53.356Z,28.50
2018-07-28T10:57:24.473Z,28.60
2018-07-28T10:59:55.222Z,28.70
2018-07-28T11:02:25.466Z,28.80
2018-07-28T11:04:56.022Z,29.00
2018-07-28T11:07:25.600Z,29.20
2018-07-28T11:09:55.320Z,29.50
2018-07-28T11:12:24.892Z,29.90
2018-07-28T11:17:24.696Z,30.50
2018-07-28T11:19:54.412Z,30.70
2018-07-28T11:22:24.154Z,30.80
2018-07-28T11:24:53.835Z,30.90
2018-07-28T11:27:23.394Z,31.00
2018-07-28T11:29:53.148Z,31.10
2018-07-28T11:32:39.530Z,31.10
2018-07-28T11:35:25.881Z,31.20
2018-07-28T11:41:22.546Z,31.70
2018-07-28T11:45:10.166Z,31.90
2018-07-28T11:47:39.920Z,32.20
2018-07-28T11:50:09.577Z,32.50
2018-07-28T11:52:39.343Z,32.70
2018-07-28T11:55:08.998Z,32.90
2018-07-28T11:57:38.700Z,33.20
2018-07-28T12:00:10.367Z,33.30
2018-07-28T12:02:40.532Z,33.50
2018-07-28T12:05:10.908Z,33.50
2018-07-28T12:07:41.072Z,33.50
2018-07-28T12:10:11.218Z,33.50
2018-07-28T12:12:41.536Z,33.60
2018-07-28T12:15:11.844Z,33.50
2018-07-28T12:17:41.866Z,33.50
2018-07-28T12:20:12.320Z,33.50
2018-07-28T12:22:42.149Z,33.60
2018-07-28T12:25:11.959Z,33.60
2018-07-28T12:27:41.609Z,33.50
2018-07-28T12:30:12.161Z,33.50
2018-07-28T12:32:42.214Z,33.20
2018-07-28T12:35:11.889Z,33.20
2018-07-28T12:37:41.637Z,33.00
2018-07-28T12:40:11.349Z,32.60
2018-07-28T12:42:41.118Z,32.50
2018-07-28T12:45:10.924Z,32.40
2018-07-28T12:47:40.541Z,32.20
2018-07-28T12:50:10.350Z,32.10
2018-07-28T12:52:40.328Z,32.10
2018-07-28T12:55:09.705Z,32.10
2018-07-28T12:57:39.344Z,32.10
2018-07-28T13:00:08.981Z,32.20
2018-07-28T13:02:38.557Z,32.10
2018-07-28T13:05:09.177Z,32.10
2018-07-28T13:07:38.844Z,32.00
2018-07-28T13:10:09.283Z,31.90
2018-07-28T13:12:39.035Z,31.80
2018-07-28T13:15:08.811Z,31.80
2018-07-28T13:17:38.458Z,31.70
2018-07-28T13:20:08.353Z,31.50
2018-07-28T13:22:38.086Z,31.60
2018-07-28T13:25:07.846Z,31.50
2018-07-28T13:27:37.559Z,31.50
2018-07-28T13:30:07.759Z,31.40
2018-07-28T13:32:38.286Z,31.30
2018-07-28T13:35:08.034Z,31.00
2018-07-28T13:37:37.642Z,30.90
2018-07-28T13:40:07.353Z,30.70
2018-07-28T13:42:37.035Z,30.50
2018-07-28T13:45:07.170Z,30.30
2018-07-28T13:47:36.893Z,30.20
2018-07-28T13:50:06.783Z,30.10
2018-07-28T13:52:36.434Z,30.00
2018-07-28T13:55:06.250Z,29.90
2018-07-28T13:57:36.058Z,29.90
2018-07-28T14:00:07.178Z,30.00
2018-07-28T14:02:36.972Z,30.20
2018-07-28T14:05:06.658Z,30.50
2018-07-28T14:07:36.261Z,30.60
2018-07-28T14:10:06.874Z,30.90
2018-07-28T14:12:36.748Z,31.00
2018-07-28T14:15:07.644Z,31.20
2018-07-28T14:17:37.285Z,31.20
2018-07-28T14:20:07.254Z,31.20
2018-07-28T14:22:37.387Z,31.30
2018-07-28T14:25:07.798Z,31.30
2018-07-28T14:27:37.522Z,31.50
2018-07-28T14:30:07.350Z,31.60
2018-07-28T14:32:39.050Z,31.60
2018-07-28T14:37:38.072Z,31.40
2018-07-28T14:40:07.728Z,31.40
2018-07-28T14:42:37.462Z,31.40
2018-07-28T14:45:09.309Z,31.40
2018-07-28T14:47:38.894Z,31.40
2018-07-28T14:50:08.905Z,31.40
2018-07-28T14:52:38.560Z,31.40
2018-07-28T14:55:08.437Z,31.40
2018-07-28T14:57:38.078Z,31.40
2018-07-28T15:00:08.454Z,31.60
2018-07-28T15:02:38.195Z,31.70
2018-07-28T15:05:08.211Z,31.80
2018-07-28T15:07:38.021Z,31.80
2018-07-28T15:10:07.658Z,31.80
2018-07-28T15:12:37.316Z,31.70
2018-07-28T15:15:07.265Z,31.70
2018-07-28T15:17:36.888Z,31.80
2018-07-28T15:20:06.577Z,31.90
2018-07-28T15:22:36.266Z,32.00
2018-07-28T15:25:05.937Z,32.00
2018-07-28T15:27:35.635Z,32.10
2018-07-28T15:30:05.749Z,32.00
2018-07-28T15:32:35.313Z,32.00
2018-07-28T15:37:34.330Z,31.80
2018-07-28T15:40:04.103Z,31.80
2018-07-28T15:42:33.742Z,31.70
2018-07-28T15:45:03.426Z,31.60
2018-07-28T15:47:33.087Z,31.40
2018-07-28T15:50:02.798Z,31.30
2018-07-28T15:52:32.403Z,31.00
2018-07-28T15:55:02.144Z,30.80
2018-07-28T15:57:31.870Z,30.60
2018-07-28T16:00:01.583Z,30.50
2018-07-28T16:02:31.309Z,30.40
2018-07-28T16:05:00.961Z,30.40
2018-07-28T16:07:30.641Z,30.30
2018-07-28T16:10:00.380Z,30.20
2018-07-28T16:12:29.971Z,30.10
2018-07-28T16:14:59.733Z,29.90
2018-07-28T16:17:29.439Z,29.80
2018-07-28T16:19:59.157Z,29.70
2018-07-28T16:22:28.755Z,29.70
2018-07-28T16:24:58.651Z,29.60
2018-07-28T16:29:57.684Z,29.60
2018-07-28T16:32:28.341Z,29.70
2018-07-28T16:34:57.970Z,29.70
2018-07-28T16:37:27.662Z,29.70
2018-07-28T16:39:57.615Z,29.70
2018-07-28T16:42:27.347Z,29.80
2018-07-28T16:47:26.946Z,29.60
2018-07-28T16:49:56.663Z,29.40
2018-07-28T16:52:26.389Z,29.40
2018-07-28T16:54:56.056Z,29.40
2018-07-28T16:57:25.823Z,29.40
2018-07-28T16:59:55.593Z,29.40
2018-07-28T17:02:25.249Z,29.30
2018-07-28T17:04:55.050Z,29.30
2018-07-28T17:07:24.712Z,29.20
2018-07-28T17:09:54.930Z,29.20
2018-07-28T17:12:24.682Z,29.10
2018-07-28T17:14:54.324Z,29.00
2018-07-28T17:17:23.982Z,29.00
2018-07-28T17:19:53.732Z,28.90
2018-07-28T17:22:23.610Z,28.80
2018-07-28T17:24:53.316Z,28.80
2018-07-28T17:27:22.966Z,28.70
2018-07-28T17:29:52.633Z,28.60
2018-07-28T17:32:22.328Z,28.50
2018-07-28T17:34:52.038Z,28.40
2018-07-28T17:37:21.853Z,28.30
2018-07-28T17:39:51.495Z,28.30
2018-07-28T17:42:21.143Z,28.30
2018-07-28T17:44:50.799Z,28.20
2018-07-28T17:47:20.525Z,28.20
2018-07-28T17:49:50.297Z,28.10
2018-07-28T17:52:19.834Z,28.10
2018-07-28T17:54:49.676Z,28.00
2018-07-28T17:57:19.500Z,28.00
2018-07-28T17:59:49.213Z,27.90
2018-07-28T18:02:18.776Z,27.90
2018-07-28T18:04:48.528Z,27.80
2018-07-28T18:07:18.106Z,27.80
2018-07-28T18:09:47.834Z,27.80
2018-07-28T18:12:17.548Z,27.70
2018-07-28T18:14:47.144Z,27.60
2018-07-28T18:17:16.818Z,27.60
2018-07-28T18:19:46.546Z,27.60
2018-07-28T18:22:16.176Z,27.50
2018-07-28T18:24:45.819Z,27.50
2018-07-28T18:27:15.394Z,27.40
2018-07-28T18:29:44.996Z,27.30
2018-07-28T18:32:14.680Z,27.30
2018-07-28T18:34:44.430Z,27.20
2018-07-28T18:37:14.056Z,27.10
2018-07-28T18:39:43.707Z,27.00
2018-07-28T18:42:13.618Z,26.90
2018-07-28T18:44:43.322Z,26.90
2018-07-28T18:47:13.029Z,26.80
2018-07-28T18:49:42.745Z,26.80
2018-07-28T18:52:12.514Z,26.70
2018-07-28T18:54:42.125Z,26.70
2018-07-28T18:57:11.737Z,26.60
2018-07-28T18:59:41.330Z,26.60
2018-07-28T19:04:40.320Z,26.60
2018-07-28T19:07:09.931Z,26.50
2018-07-28T19:09:44.859Z,26.40
2018-07-28T19:12:14.827Z,26.30
2018-07-28T19:14:44.900Z,26.20
2018-07-28T19:17:14.982Z,26.10
2018-07-28T19:19:45.094Z,26.00
2018-07-28T19:22:20.324Z,25.80
2018-07-28T19:24:50.515Z,25.70
2018-07-28T19:27:21.228Z,25.60
2018-07-28T19:29:51.494Z,25.50
2018-07-28T19:32:21.910Z,25.40
2018-07-28T19:34:52.336Z,25.30
2018-07-28T19:37:24.389Z,25.20
2018-07-28T19:39:54.754Z,25.10
2018-07-28T19:45:00.007Z,25.00
2018-07-28T19:47:30.380Z,24.90
2018-07-28T19:50:00.406Z,24.80
2018-07-28T19:52:30.607Z,24.60
2018-07-28T19:55:00.903Z,24.60
2018-07-28T19:57:30.506Z,24.50
2018-07-28T20:00:00.298Z,24.40
2018-07-28T20:02:29.933Z,24.30
2018-07-28T20:04:59.505Z,24.30
2018-07-28T20:07:29.074Z,24.10
2018-07-28T20:09:58.670Z,24.10
2018-07-28T20:12:28.373Z,24.00
2018-07-28T20:14:58.017Z,24.00
2018-07-28T20:17:27.845Z,23.90
2018-07-28T20:19:57.652Z,23.80
2018-07-28T20:22:27.927Z,23.80
2018-07-28T20:24:58.139Z,23.70
2018-07-28T20:27:28.202Z,23.60
2018-07-28T20:29:58.659Z,23.60
2018-07-28T20:32:28.693Z,23.50
2018-07-28T20:34:59.074Z,23.40
2018-07-28T20:37:29.424Z,23.40
2018-07-28T20:39:59.799Z,23.30
2018-07-28T20:42:30.137Z,23.30
2018-07-28T20:45:00.462Z,23.20
2018-07-28T20:47:30.817Z,23.20
2018-07-28T20:50:00.953Z,23.10
2018-07-28T20:52:31.053Z,23.00
2018-07-28T20:55:01.558Z,23.00
2018-07-28T20:57:31.818Z,23.00
2018-07-28T21:00:02.213Z,22.90
2018-07-28T21:02:32.315Z,22.90
2018-07-28T21:05:02.584Z,22.80
2018-07-28T21:07:32.223Z,22.80
2018-07-28T21:10:01.993Z,22.80
2018-07-28T21:12:31.477Z,22.70
2018-07-28T21:15:01.305Z,22.60
2018-07-28T21:17:30.926Z,22.60
2018-07-28T21:20:00.659Z,22.60
2018-07-28T21:22:30.396Z,22.50
2018-07-28T21:25:00.159Z,22.50
2018-07-28T21:27:29.962Z,22.50
2018-07-28T21:29:59.633Z,22.40
2018-07-28T21:32:29.359Z,22.40
2018-07-28T21:34:59.066Z,22.40
2018-07-28T21:37:28.642Z,22.40
2018-07-28T21:39:58.226Z,22.30
2018-07-28T21:42:27.892Z,22.30
2018-07-28T21:44:57.520Z,22.20
2018-07-28T21:47:27.234Z,22.20
2018-07-28T21:49:56.862Z,22.20
2018-07-28T21:52:26.402Z,22.10
2018-07-28T21:54:56.592Z,22.10
2018-07-28T21:57:26.696Z,22.10
2018-07-28T21:59:56.665Z,22.00
2018-07-28T22:02:26.722Z,22.00
2018-07-28T22:04:56.664Z,22.00
2018-07-28T22:07:26.701Z,21.90
2018-07-28T22:09:56.667Z,21.90
2018-07-28T22:12:26.664Z,21.90
2018-07-28T22:14:56.686Z,21.90
2018-07-28T22:17:26.754Z,21.80
2018-07-28T22:19:56.620Z,21.80
2018-07-28T22:22:26.504Z,21.80
2018-07-28T22:24:56.713Z,21.70
2018-07-28T22:27:26.569Z,21.70
2018-07-28T22:29:56.506Z,21.60
2018-07-28T22:32:26.124Z,21.60
2018-07-28T22:34:55.752Z,21.50
2018-07-28T22:37:25.382Z,21.50
2018-07-28T22:39:55.234Z,21.40
2018-07-28T22:42:56.193Z,21.40
2018-07-28T22:45:26.223Z,21.30
2018-07-28T22:47:56.255Z,21.30
2018-07-28T22:50:26.349Z,21.20
2018-07-28T22:52:56.129Z,21.20
2018-07-28T22:55:26.087Z,21.10
2018-07-28T22:57:56.050Z,21.10
2018-07-28T23:00:26.039Z,21.10
2018-07-28T23:02:56.063Z,21.00
2018-07-28T23:05:26.021Z,21.00
2018-07-28T23:07:55.959Z,20.90
2018-07-28T23:10:25.755Z,20.90
2018-07-28T23:12:55.811Z,20.80
2018-07-28T23:15:25.816Z,20.80
2018-07-28T23:17:55.903Z,20.70
2018-07-28T23:20:25.893Z,20.60
2018-07-28T23:22:55.831Z,20.50
2018-07-28T23:25:26.139Z,20.50
2018-07-28T23:27:56.184Z,20.40
2018-07-28T23:30:26.271Z,20.40
2018-07-28T23:32:56.437Z,20.30
2018-07-28T23:35:26.816Z,20.30
2018-07-28T23:37:56.449Z,20.20
2018-07-28T23:40:26.288Z,20.20
2018-07-28T23:42:55.942Z,20.10
2018-07-28T23:45:25.606Z,20.10
2018-07-28T23:47:55.458Z,20.00
2018-07-28T23:50:25.218Z,20.00
2018-07-28T23:52:55.022Z,19.90
2018-07-28T23:55:24.650Z,19.90
2018-07-28T23:57:54.378Z,19.80
